RYR55LM EGCC-LKPR
Flight info
| Callsign | RYR55LM |
|---|---|
| Flight time | N/A |
| Altitude | 37000 |
| Route | DESIG L603 LAMSO DCT PETIK DCT TALEG L620 PIKIB T620 LALUK DCT GOLOP |
| Aircraft | B38M/M-SDE1FGHILORVWXY/HB1 |
Departure
| Time | 2026-05-05 16:46 |
|---|---|
| Airport | Manchester Airport (EGCC) |
Arrival
| Time | N/A |
|---|---|
| Airport | Václav Havel Airport Prague (LKPR) |
| Time | Latitude | Longitude | Altitude | Speed | Heading |
|---|---|---|---|---|---|
| 2026-05-05 16:13 | 53.36078 | -2.27511 | 257 ft | 0 kts | 96° |
| 2026-05-05 16:32 | 53.36080 | -2.27535 | 257 ft | 4 kts | 97° |
| 2026-05-05 16:32 | 53.36082 | -2.27579 | 257 ft | 4 kts | 84° |
| 2026-05-05 16:33 | 53.36077 | -2.27612 | 257 ft | 4 kts | 75° |
| 2026-05-05 16:33 | 53.36075 | -2.27656 | 257 ft | 4 kts | 100° |
| 2026-05-05 16:33 | 53.36078 | -2.27676 | 257 ft | 1 kts | 104° |
| 2026-05-05 16:36 | 53.36077 | -2.27673 | 257 ft | 1 kts | 107° |
| 2026-05-05 16:37 | 53.36054 | -2.27623 | 257 ft | 7 kts | 138° |
| 2026-05-05 16:37 | 53.36031 | -2.27617 | 257 ft | 3 kts | 185° |
| 2026-05-05 16:37 | 53.36003 | -2.27624 | 257 ft | 2 kts | 191° |
| 2026-05-05 16:37 | 53.35988 | -2.27629 | 257 ft | 3 kts | 188° |
| 2026-05-05 16:38 | 53.35961 | -2.27630 | 257 ft | 5 kts | 178° |
| 2026-05-05 16:38 | 53.35919 | -2.27628 | 257 ft | 7 kts | 178° |
| 2026-05-05 16:38 | 53.35857 | -2.27633 | 257 ft | 9 kts | 186° |
| 2026-05-05 16:38 | 53.35785 | -2.27649 | 255 ft | 13 kts | 188° |
| 2026-05-05 16:39 | 53.35736 | -2.27675 | 250 ft | 10 kts | 210° |
| 2026-05-05 16:39 | 53.35685 | -2.27776 | 246 ft | 13 kts | 227° |
| 2026-05-05 16:39 | 53.35629 | -2.27886 | 243 ft | 5 kts | 233° |
| 2026-05-05 16:39 | 53.35620 | -2.27906 | 243 ft | 4 kts | 233° |
| 2026-05-05 16:40 | 53.35594 | -2.27963 | 241 ft | 9 kts | 231° |
| 2026-05-05 16:40 | 53.35541 | -2.28066 | 237 ft | 16 kts | 222° |
| 2026-05-05 16:40 | 53.35451 | -2.28151 | 237 ft | 13 kts | 191° |
| 2026-05-05 16:40 | 53.35363 | -2.28173 | 237 ft | 14 kts | 193° |
| 2026-05-05 16:41 | 53.35287 | -2.28226 | 234 ft | 12 kts | 210° |
| 2026-05-05 16:41 | 53.35227 | -2.28315 | 237 ft | 10 kts | 223° |
| 2026-05-05 16:41 | 53.35203 | -2.28357 | 233 ft | 2 kts | 233° |
| 2026-05-05 16:41 | 53.35178 | -2.28411 | 231 ft | 9 kts | 232° |
| 2026-05-05 16:42 | 53.35127 | -2.28514 | 229 ft | 13 kts | 231° |
| 2026-05-05 16:42 | 53.35074 | -2.28624 | 233 ft | 12 kts | 231° |
| 2026-05-05 16:42 | 53.35012 | -2.28744 | 229 ft | 16 kts | 229° |
| 2026-05-05 16:42 | 53.34932 | -2.28888 | 228 ft | 18 kts | 227° |
| 2026-05-05 16:43 | 53.34843 | -2.29043 | 221 ft | 12 kts | 225° |
| 2026-05-05 16:43 | 53.34820 | -2.29070 | 221 ft | 4 kts | 208° |
| 2026-05-05 16:43 | 53.34795 | -2.29122 | 223 ft | 8 kts | 237° |
| 2026-05-05 16:43 | 53.34751 | -2.29226 | 216 ft | 14 kts | 232° |
| 2026-05-05 16:44 | 53.34703 | -2.29307 | 216 ft | 9 kts | 211° |
| 2026-05-05 16:44 | 53.34655 | -2.29333 | 214 ft | 1 kts | 193° |
| 2026-05-05 16:44 | 53.34640 | -2.29339 | 214 ft | 8 kts | 187° |
| 2026-05-05 16:44 | 53.34574 | -2.29313 | 216 ft | 7 kts | 158° |
| 2026-05-05 16:45 | 53.34544 | -2.29258 | 216 ft | 7 kts | 98° |
| 2026-05-05 16:45 | 53.34561 | -2.29184 | 219 ft | 8 kts | 54° |
| 2026-05-05 16:45 | 53.34626 | -2.29045 | 217 ft | 28 kts | 51° |
| 2026-05-05 16:45 | 53.34887 | -2.28501 | 236 ft | 99 kts | 51° |
| 2026-05-05 16:46 | 53.35484 | -2.27270 | 253 ft | 171 kts | 52° |
| 2026-05-05 16:46 | 53.36298 | -2.25530 | 666 ft | 204 kts | 51° |
| 2026-05-05 16:46 | 53.37221 | -2.23600 | 1122 ft | 214 kts | 49° |
| 2026-05-05 16:46 | 53.38187 | -2.21672 | 1958 ft | 223 kts | 48° |
| 2026-05-05 16:47 | 53.39241 | -2.19568 | 2570 ft | 250 kts | 48° |
| 2026-05-05 16:47 | 53.40354 | -2.17339 | 3639 ft | 249 kts | 50° |
| 2026-05-05 16:47 | 53.41443 | -2.14977 | 4045 ft | 259 kts | 52° |
| 2026-05-05 16:47 | 53.42523 | -2.12565 | 4629 ft | 258 kts | 52° |
| 2026-05-05 16:48 | 53.43623 | -2.10153 | 5000 ft | 261 kts | 52° |
| 2026-05-05 16:48 | 53.44730 | -2.07749 | 5000 ft | 259 kts | 52° |
| 2026-05-05 16:48 | 53.45822 | -2.05398 | 5007 ft | 258 kts | 51° |
| 2026-05-05 16:48 | 53.46934 | -2.03013 | 4995 ft | 260 kts | 51° |
| 2026-05-05 16:49 | 53.48049 | -2.00630 | 4998 ft | 259 kts | 51° |
| 2026-05-05 16:49 | 53.49178 | -1.98266 | 4990 ft | 259 kts | 50° |
| 2026-05-05 16:49 | 53.50307 | -1.95906 | 4992 ft | 259 kts | 50° |
| 2026-05-05 16:49 | 53.51431 | -1.93542 | 5014 ft | 260 kts | 54° |
| 2026-05-05 16:50 | 53.52077 | -1.90735 | 5630 ft | 259 kts | 83° |
| 2026-05-05 16:50 | 53.51986 | -1.87672 | 6608 ft | 268 kts | 102° |
| 2026-05-05 16:50 | 53.51471 | -1.84636 | 7533 ft | 274 kts | 105° |
| 2026-05-05 16:50 | 53.50944 | -1.81488 | 8326 ft | 286 kts | 105° |
| 2026-05-05 16:51 | 53.50400 | -1.78242 | 9279 ft | 290 kts | 105° |
| 2026-05-05 16:51 | 53.49842 | -1.74927 | 10148 ft | 297 kts | 105° |
| 2026-05-05 16:51 | 53.49266 | -1.71507 | 10729 ft | 314 kts | 105° |
| 2026-05-05 16:51 | 53.48664 | -1.67912 | 11145 ft | 334 kts | 105° |
| 2026-05-05 16:52 | 53.48020 | -1.64075 | 11687 ft | 348 kts | 105° |
| 2026-05-05 16:52 | 53.47347 | -1.60095 | 12329 ft | 358 kts | 106° |
| 2026-05-05 16:52 | 53.46659 | -1.56069 | 13196 ft | 361 kts | 106° |
| 2026-05-05 16:52 | 53.45960 | -1.51992 | 13927 ft | 367 kts | 106° |
| 2026-05-05 16:53 | 53.45248 | -1.47847 | 14611 ft | 371 kts | 107° |
| 2026-05-05 16:53 | 53.44525 | -1.43658 | 15299 ft | 375 kts | 107° |
| 2026-05-05 16:53 | 53.43794 | -1.39428 | 15980 ft | 379 kts | 107° |
| 2026-05-05 16:53 | 53.43053 | -1.35154 | 16651 ft | 383 kts | 107° |
| 2026-05-05 16:54 | 53.42303 | -1.30840 | 17306 ft | 387 kts | 107° |
| 2026-05-05 16:54 | 53.41542 | -1.26541 | 17935 ft | 391 kts | 108° |
| 2026-05-05 16:54 | 53.40753 | -1.22158 | 18533 ft | 395 kts | 108° |
| 2026-05-05 16:54 | 53.39944 | -1.17729 | 19080 ft | 398 kts | 108° |
| 2026-05-05 16:55 | 53.39131 | -1.13277 | 19634 ft | 401 kts | 109° |
| 2026-05-05 16:55 | 53.38310 | -1.08792 | 20183 ft | 404 kts | 109° |
| 2026-05-05 16:55 | 53.37480 | -1.04265 | 20724 ft | 408 kts | 109° |
| 2026-05-05 16:55 | 53.36641 | -0.99705 | 21238 ft | 411 kts | 109° |
| 2026-05-05 16:56 | 53.35793 | -0.95100 | 21748 ft | 415 kts | 109° |
| 2026-05-05 16:56 | 53.34940 | -0.90483 | 22278 ft | 418 kts | 109° |
| 2026-05-05 16:56 | 53.34074 | -0.85804 | 22795 ft | 421 kts | 110° |
| 2026-05-05 16:56 | 53.33214 | -0.81168 | 23303 ft | 424 kts | 110° |
| 2026-05-05 16:57 | 53.32334 | -0.76442 | 23766 ft | 427 kts | 110° |
| 2026-05-05 16:57 | 53.31447 | -0.71683 | 24206 ft | 429 kts | 110° |
| 2026-05-05 16:57 | 53.30553 | -0.66905 | 24659 ft | 430 kts | 110° |
| 2026-05-05 16:57 | 53.29652 | -0.62102 | 25099 ft | 432 kts | 110° |
| 2026-05-05 16:58 | 53.28748 | -0.57296 | 25536 ft | 434 kts | 109° |
| 2026-05-05 16:58 | 53.27851 | -0.52536 | 25957 ft | 435 kts | 109° |
| 2026-05-05 16:58 | 53.26935 | -0.47690 | 26375 ft | 437 kts | 109° |
| 2026-05-05 16:58 | 53.26015 | -0.42835 | 26788 ft | 439 kts | 109° |
| 2026-05-05 16:59 | 53.25089 | -0.37959 | 27176 ft | 441 kts | 110° |
| 2026-05-05 16:59 | 53.24154 | -0.33051 | 27586 ft | 442 kts | 110° |
| 2026-05-05 16:59 | 53.23218 | -0.28148 | 27971 ft | 445 kts | 110° |
| 2026-05-05 16:59 | 53.22275 | -0.23224 | 28361 ft | 447 kts | 110° |
| 2026-05-05 17:00 | 53.21322 | -0.18264 | 28721 ft | 449 kts | 110° |
| 2026-05-05 17:00 | 53.20379 | -0.13363 | 29069 ft | 451 kts | 110° |
| 2026-05-05 17:00 | 53.19416 | -0.08372 | 29428 ft | 453 kts | 110° |
| 2026-05-05 17:00 | 53.18447 | -0.03359 | 29768 ft | 455 kts | 110° |
| 2026-05-05 17:01 | 53.17468 | 0.01689 | 30079 ft | 457 kts | 111° |
| 2026-05-05 17:01 | 53.16485 | 0.06744 | 30313 ft | 460 kts | 111° |
| 2026-05-05 17:01 | 53.15494 | 0.11828 | 30608 ft | 462 kts | 111° |
| 2026-05-05 17:01 | 53.14496 | 0.16928 | 30898 ft | 463 kts | 110° |
| 2026-05-05 17:02 | 53.13494 | 0.22043 | 31176 ft | 465 kts | 110° |
| 2026-05-05 17:02 | 53.12485 | 0.27176 | 31457 ft | 467 kts | 110° |
| 2026-05-05 17:02 | 53.11486 | 0.32245 | 31782 ft | 467 kts | 110° |
| 2026-05-05 17:02 | 53.10471 | 0.37382 | 32190 ft | 465 kts | 110° |
| 2026-05-05 17:03 | 53.09457 | 0.42500 | 32582 ft | 464 kts | 110° |
| 2026-05-05 17:03 | 53.08446 | 0.47589 | 32961 ft | 463 kts | 110° |
| 2026-05-05 17:03 | 53.07432 | 0.52676 | 33314 ft | 463 kts | 110° |
| 2026-05-05 17:03 | 53.06419 | 0.57750 | 33597 ft | 463 kts | 110° |
| 2026-05-05 17:04 | 53.05401 | 0.62835 | 33921 ft | 463 kts | 110° |
| 2026-05-05 17:04 | 53.04381 | 0.67920 | 34229 ft | 462 kts | 110° |
| 2026-05-05 17:04 | 53.03357 | 0.73002 | 34490 ft | 462 kts | 110° |
| 2026-05-05 17:04 | 53.02348 | 0.78007 | 34740 ft | 462 kts | 110° |
| 2026-05-05 17:05 | 53.01323 | 0.83070 | 34983 ft | 463 kts | 110° |
| 2026-05-05 17:05 | 53.00296 | 0.88139 | 35226 ft | 463 kts | 110° |
| 2026-05-05 17:05 | 52.99263 | 0.93224 | 35480 ft | 463 kts | 110° |
| 2026-05-05 17:05 | 52.98235 | 0.98280 | 35720 ft | 463 kts | 110° |
| 2026-05-05 17:06 | 52.97483 | 1.03483 | 35954 ft | 465 kts | 102° |
| 2026-05-05 17:06 | 52.96876 | 1.08763 | 36168 ft | 465 kts | 103° |
| 2026-05-05 17:06 | 52.96263 | 1.14026 | 36374 ft | 466 kts | 103° |
| 2026-05-05 17:06 | 52.95650 | 1.19308 | 36613 ft | 465 kts | 103° |
| 2026-05-05 17:07 | 52.95045 | 1.24514 | 36833 ft | 465 kts | 103° |
| 2026-05-05 17:07 | 52.94429 | 1.29792 | 36980 ft | 466 kts | 103° |
| 2026-05-05 17:07 | 52.93192 | 1.40330 | 36976 ft | 464 kts | 103° |
| 2026-05-05 17:08 | 52.92151 | 1.49130 | 36963 ft | 464 kts | 103° |
| 2026-05-05 17:08 | 52.90907 | 1.59575 | 36972 ft | 466 kts | 103° |
| 2026-05-05 17:09 | 52.89642 | 1.70111 | 36967 ft | 466 kts | 103° |
| 2026-05-05 17:09 | 52.88368 | 1.80642 | 36962 ft | 466 kts | 103° |
| 2026-05-05 17:10 | 52.87084 | 1.91169 | 36965 ft | 466 kts | 103° |
| 2026-05-05 17:10 | 52.85799 | 2.01616 | 36971 ft | 466 kts | 104° |
| 2026-05-05 17:11 | 52.84496 | 2.12133 | 36971 ft | 467 kts | 104° |
| 2026-05-05 17:11 | 52.83183 | 2.22653 | 36956 ft | 467 kts | 104° |
| 2026-05-05 17:12 | 52.81858 | 2.33184 | 36957 ft | 467 kts | 104° |
| 2026-05-05 17:12 | 52.80528 | 2.43696 | 36957 ft | 467 kts | 104° |
| 2026-05-05 17:13 | 52.79194 | 2.54126 | 36951 ft | 467 kts | 104° |
| 2026-05-05 17:13 | 52.77844 | 2.64612 | 36956 ft | 466 kts | 104° |
| 2026-05-05 17:14 | 52.76484 | 2.75100 | 36960 ft | 466 kts | 104° |
| 2026-05-05 17:14 | 52.75114 | 2.85591 | 36957 ft | 466 kts | 104° |
| 2026-05-05 17:15 | 52.73746 | 2.95983 | 36959 ft | 466 kts | 104° |
| 2026-05-05 17:15 | 52.72726 | 3.06554 | 36971 ft | 467 kts | 101° |
| 2026-05-05 17:16 | 52.71761 | 3.17120 | 36962 ft | 464 kts | 101° |
| 2026-05-05 17:16 | 52.70773 | 3.27625 | 36957 ft | 463 kts | 101° |
| 2026-05-05 17:17 | 52.69776 | 3.38127 | 36957 ft | 463 kts | 101° |
| 2026-05-05 17:17 | 52.68776 | 3.48544 | 36958 ft | 463 kts | 102° |
| 2026-05-05 17:18 | 52.67760 | 3.59031 | 36956 ft | 462 kts | 102° |
| 2026-05-05 17:18 | 52.66738 | 3.69484 | 36947 ft | 462 kts | 102° |
| 2026-05-05 17:19 | 52.65705 | 3.79939 | 36944 ft | 462 kts | 102° |
| 2026-05-05 17:19 | 52.64671 | 3.90321 | 36940 ft | 462 kts | 102° |
| 2026-05-05 17:20 | 52.63621 | 4.00759 | 36914 ft | 462 kts | 102° |
| 2026-05-05 17:20 | 52.62562 | 4.11199 | 36936 ft | 462 kts | 102° |
| 2026-05-05 17:21 | 52.61451 | 4.21622 | 36923 ft | 460 kts | 107° |
| 2026-05-05 17:22 | 52.59229 | 4.36946 | 36928 ft | 460 kts | 106° |
| 2026-05-05 17:22 | 52.57769 | 4.47210 | 36919 ft | 461 kts | 106° |
| 2026-05-05 17:23 | 52.56301 | 4.57475 | 36918 ft | 460 kts | 106° |
| 2026-05-05 17:23 | 52.54835 | 4.67655 | 36909 ft | 460 kts | 107° |
| 2026-05-05 17:24 | 52.53352 | 4.77889 | 36913 ft | 460 kts | 107° |
| 2026-05-05 17:24 | 52.51859 | 4.88117 | 36911 ft | 460 kts | 107° |
| 2026-05-05 17:25 | 52.50355 | 4.98367 | 36902 ft | 460 kts | 107° |
| 2026-05-05 17:25 | 52.48845 | 5.08580 | 36909 ft | 459 kts | 107° |
| 2026-05-05 17:26 | 52.47340 | 5.18695 | 36908 ft | 459 kts | 107° |
| 2026-05-05 17:26 | 52.45813 | 5.28890 | 36909 ft | 460 kts | 107° |
| 2026-05-05 17:27 | 52.44279 | 5.39069 | 36915 ft | 459 kts | 107° |
| 2026-05-05 17:27 | 52.42746 | 5.49179 | 36894 ft | 460 kts | 107° |
| 2026-05-05 17:28 | 52.41190 | 5.59370 | 36917 ft | 462 kts | 107° |
| 2026-05-05 17:28 | 52.39624 | 5.69567 | 36894 ft | 462 kts | 107° |
| 2026-05-05 17:29 | 52.38049 | 5.79759 | 36883 ft | 462 kts | 107° |
| 2026-05-05 17:29 | 52.36465 | 5.89939 | 36896 ft | 461 kts | 107° |
| 2026-05-05 17:30 | 52.34873 | 6.00113 | 36895 ft | 462 kts | 108° |
| 2026-05-05 17:30 | 52.33268 | 6.10302 | 36898 ft | 462 kts | 108° |
| 2026-05-05 17:31 | 52.31656 | 6.20477 | 36896 ft | 462 kts | 108° |
| 2026-05-05 17:31 | 52.30036 | 6.30641 | 36893 ft | 462 kts | 108° |
| 2026-05-05 17:32 | 52.28407 | 6.40797 | 36885 ft | 462 kts | 108° |
| 2026-05-05 17:32 | 52.26767 | 6.50957 | 36883 ft | 462 kts | 109° |
| 2026-05-05 17:33 | 52.25131 | 6.61034 | 36877 ft | 462 kts | 109° |
| 2026-05-05 17:33 | 52.23474 | 6.71178 | 36877 ft | 462 kts | 109° |
| 2026-05-05 17:34 | 52.21809 | 6.81310 | 36875 ft | 462 kts | 109° |
| 2026-05-05 17:34 | 52.20136 | 6.91434 | 36850 ft | 462 kts | 109° |
| 2026-05-05 17:35 | 52.18459 | 7.01519 | 36864 ft | 462 kts | 109° |
| 2026-05-05 17:35 | 52.16767 | 7.11635 | 36866 ft | 462 kts | 109° |
| 2026-05-05 17:36 | 52.15066 | 7.21747 | 36859 ft | 462 kts | 109° |
| 2026-05-05 17:36 | 52.13361 | 7.31822 | 36854 ft | 462 kts | 109° |
| 2026-05-05 17:37 | 52.11657 | 7.41836 | 36849 ft | 462 kts | 110° |
| 2026-05-05 17:37 | 52.09933 | 7.51910 | 36857 ft | 463 kts | 110° |
| 2026-05-05 17:38 | 52.08199 | 7.61979 | 36863 ft | 462 kts | 110° |
| 2026-05-05 17:38 | 52.06455 | 7.72052 | 36850 ft | 462 kts | 110° |
| 2026-05-05 17:39 | 52.04705 | 7.82101 | 36856 ft | 462 kts | 110° |
| 2026-05-05 17:39 | 52.02947 | 7.92139 | 36848 ft | 462 kts | 110° |
| 2026-05-05 17:40 | 52.01177 | 8.02193 | 36847 ft | 463 kts | 110° |
| 2026-05-05 17:40 | 51.99404 | 8.12201 | 36839 ft | 460 kts | 110° |
| 2026-05-05 17:41 | 51.97642 | 8.22102 | 36843 ft | 459 kts | 110° |
| 2026-05-05 17:41 | 51.95859 | 8.32055 | 36840 ft | 459 kts | 110° |
| 2026-05-05 17:42 | 51.94067 | 8.42008 | 36841 ft | 460 kts | 110° |
| 2026-05-05 17:42 | 51.92268 | 8.51944 | 36834 ft | 460 kts | 110° |
| 2026-05-05 17:43 | 51.90457 | 8.61893 | 36834 ft | 460 kts | 110° |
| 2026-05-05 17:43 | 51.88640 | 8.71823 | 36836 ft | 460 kts | 110° |
| 2026-05-05 17:44 | 51.86824 | 8.81693 | 36813 ft | 460 kts | 111° |
| 2026-05-05 17:44 | 51.84989 | 8.91612 | 36825 ft | 460 kts | 111° |
| 2026-05-05 17:45 | 51.83147 | 9.01513 | 36826 ft | 460 kts | 111° |
| 2026-05-05 17:45 | 51.81295 | 9.11421 | 36817 ft | 460 kts | 111° |
| 2026-05-05 17:46 | 51.79434 | 9.21320 | 36817 ft | 460 kts | 111° |
| 2026-05-05 17:46 | 51.77567 | 9.31200 | 36816 ft | 460 kts | 111° |
| 2026-05-05 17:47 | 51.75691 | 9.41075 | 36818 ft | 460 kts | 111° |
| 2026-05-05 17:47 | 51.73806 | 9.50946 | 36805 ft | 460 kts | 111° |
| 2026-05-05 17:48 | 51.71926 | 9.60740 | 36820 ft | 460 kts | 111° |
| 2026-05-05 17:48 | 51.70024 | 9.70602 | 36823 ft | 460 kts | 111° |
| 2026-05-05 17:49 | 51.68112 | 9.80455 | 36809 ft | 461 kts | 112° |
| 2026-05-05 17:49 | 51.66189 | 9.90320 | 36816 ft | 461 kts | 112° |
| 2026-05-05 17:50 | 51.64269 | 10.00122 | 36816 ft | 461 kts | 112° |
| 2026-05-05 17:50 | 51.62330 | 10.09964 | 36814 ft | 461 kts | 112° |
| 2026-05-05 17:51 | 51.60383 | 10.19801 | 36803 ft | 461 kts | 112° |
| 2026-05-05 17:51 | 51.58433 | 10.29603 | 36822 ft | 460 kts | 112° |
| 2026-05-05 17:52 | 51.56479 | 10.39373 | 36819 ft | 459 kts | 112° |
| 2026-05-05 17:52 | 51.54512 | 10.49160 | 36829 ft | 459 kts | 112° |
| 2026-05-05 17:53 | 51.52542 | 10.58918 | 36833 ft | 459 kts | 112° |
| 2026-05-05 17:53 | 51.50559 | 10.68683 | 36819 ft | 459 kts | 112° |
| 2026-05-05 17:54 | 51.48905 | 10.76798 | 36823 ft | 459 kts | 112° |
| 2026-05-05 17:54 | 51.46587 | 10.88109 | 36823 ft | 459 kts | 113° |
| 2026-05-05 17:55 | 51.44582 | 10.97845 | 36826 ft | 459 kts | 113° |
| 2026-05-05 17:55 | 51.42897 | 11.05986 | 36816 ft | 459 kts | 113° |
| 2026-05-05 17:56 | 51.40889 | 11.15646 | 36816 ft | 460 kts | 113° |
| 2026-05-05 17:56 | 51.38856 | 11.25383 | 36813 ft | 461 kts | 113° |
| 2026-05-05 17:57 | 51.36816 | 11.35104 | 36804 ft | 460 kts | 113° |
| 2026-05-05 17:57 | 51.34764 | 11.44831 | 36805 ft | 461 kts | 113° |
| 2026-05-05 17:58 | 51.32709 | 11.54531 | 36785 ft | 461 kts | 113° |
| 2026-05-05 17:58 | 51.30650 | 11.64200 | 36802 ft | 463 kts | 113° |
| 2026-05-05 17:59 | 51.28569 | 11.73930 | 36789 ft | 462 kts | 113° |
| 2026-05-05 17:59 | 51.26481 | 11.83646 | 36786 ft | 463 kts | 113° |
| 2026-05-05 18:00 | 51.24384 | 11.93371 | 36777 ft | 463 kts | 113° |
| 2026-05-05 18:00 | 51.23080 | 11.99397 | 36757 ft | 463 kts | 113° |
| 2026-05-05 18:01 | 51.21287 | 12.07656 | 36778 ft | 465 kts | 113° |
| 2026-05-05 18:01 | 51.20048 | 12.13343 | 36772 ft | 465 kts | 113° |